Crosslake, MN (56442)

11:48 AM CST on January 29, 2015 (GMT -0600)
APRSWXNET Pine River MN US | Change Station
CLOSE
Current Station
Personal Weather Station
Location: Jenkins, MN
Elevation: 1243 ft
Nearby Weather Stations

Elev 1243 ft 46.68 °N, 94.29 °W | Updated 35 minutes ago

Overcast
Overcast
19 °F
Feels Like 19 °F
N
2
Wind Variable Wind from NNE
Gusts 8.0 mph

Today
High -- | Low -- °F
--% Chance of Precip.
Yesterday
High -- | Low -- °F
Precip. -- in
7:44 AM 5:15 PM
Waxing Gibbous, 76% visible
Pressure 30.32 in
Visibility 5.0 miles
Clouds Overcast 1800 ft
Windchill 19 °F
Dew Point 12 °F
Humidity 75%
Rainfall 0.00 in
Snow Depth Not available.
UV 1 out of 12
Pollen .10 out of 12
Air Quality Not available.
Flu Activity Not available.
METAR KPWC 291734Z AUTO 30011G19KT 5SM -SN OVC018 M08/M11 A3032 RMK AO2

More Conditions Fewer Conditions

Pressure 30.32 in
Visibility 5.0 miles
Clouds Overcast 1800 ft
Windchill 19 °F
Dew Point 12 °F
Humidity 75%
Rainfall 0.00 in
Snow Depth Not available.
UV 1 out of 12
Pollen .10 out of 12
Air Quality Not available.
Flu Activity Not available.
METAR KPWC 291734Z AUTO 30011G19KT 5SM -SN OVC018 M08/M11 A3032 RMK AO2

More Conditions Fewer Conditions

10-Day Weather Forecast

Almanac

Astronomy

Jan. 29, 2015 Rise Set
Actual Time
Civil Twilight
Nautical Twilight
Astronomical Twilight
Moon
Length of Visible Light
Length of Day
Tomorrow will be .
, % of the Moon is Illuminated

Today's Extremes

State Highs State Lows

Community

WunderPhotos

Upload Photos

1,791,501 photos uploaded!

WunderBlogs® & News

Nearby

Air Quality

  Air Quality AQ Index Pollutant
Not available.

Snow Depth

Station Depth Elevation

Earthquake Activity

City Distance Mag. Time & Date
Minimum magnitude displayed is 2.5.

Coastal Water Temperatures

Place Temperature

Nearby Weather Stations